Terminal Aerodrome Forecast
Issued by NWS

Home | Current Version | Previous Version | Text Only | Print | Product List | Glossary On
Versions: 1 2 3 4 5 6 7 8 9 10 11 12 13 14 15
000
FTUS41 KPBZ 260520
TAFDUJ
TAF
KDUJ 260520Z 2606/2706 29009KT P6SM OVC008
      TEMPO 2606/2609 OVC012
     FM261000 28009KT P6SM BKN010
     FM261500 28010KT P6SM SCT045
     FM270200 02003KT P6SM BKN250=

USA.gov is the U.S. government's official web portal to all federal, state and local government web resources and services.